createdAt,value
2023-04-12T00:02:38.380Z,6.70
2023-04-12T00:05:05.272Z,6.70
2023-04-12T00:12:26.177Z,6.70
2023-04-12T00:17:19.910Z,6.60
2023-04-12T00:27:08.666Z,6.70
2023-04-12T00:29:35.379Z,6.60
2023-04-12T00:32:03.741Z,6.60
2023-04-12T00:36:57.441Z,6.50
2023-04-12T00:41:51.097Z,6.60
2023-04-12T00:59:01.900Z,6.70
2023-04-12T01:06:36.356Z,6.80
2023-04-12T01:16:44.322Z,6.70
2023-04-12T01:19:23.148Z,6.70
2023-04-12T01:22:08.282Z,6.70
2023-04-12T01:24:43.572Z,6.70
2023-04-12T01:27:13.662Z,6.60
2023-04-12T01:29:41.202Z,6.60
2023-04-12T01:32:09.184Z,6.60
2023-04-12T01:56:43.220Z,6.80
2023-04-12T02:06:31.834Z,6.80
2023-04-12T02:23:43.949Z,6.60
2023-04-12T02:28:38.718Z,6.60
2023-04-12T02:31:06.679Z,6.60
2023-04-12T02:33:33.393Z,6.50
2023-04-12T02:38:29.341Z,6.50
2023-04-12T02:40:56.352Z,6.60
2023-04-12T02:43:22.925Z,6.60
2023-04-12T02:45:50.009Z,6.60
2023-04-12T02:48:16.693Z,6.60
2023-04-12T02:50:43.345Z,6.60
2023-04-12T02:53:09.937Z,6.60
2023-04-12T02:55:37.973Z,6.70
2023-04-12T02:58:04.589Z,6.60
2023-04-12T03:02:59.432Z,6.70
2023-04-12T03:05:27.508Z,6.70
2023-04-12T03:10:21.312Z,6.80
2023-04-12T03:20:10.066Z,6.90
2023-04-12T03:25:04.575Z,6.90
2023-04-12T03:27:31.123Z,6.80
2023-04-12T03:29:57.626Z,6.80
2023-04-12T03:32:24.416Z,6.80
2023-04-12T03:34:51.018Z,6.80
2023-04-12T03:37:17.779Z,6.80
2023-04-12T03:39:47.891Z,6.70
2023-04-12T03:42:29.329Z,7.20
2023-04-12T03:44:58.664Z,6.70
2023-04-12T03:47:25.444Z,6.70
2023-04-12T03:50:10.385Z,6.70
2023-04-12T03:52:38.551Z,6.70
2023-04-12T03:55:07.390Z,5.50
2023-04-12T03:57:34.638Z,6.80
2023-04-12T04:00:01.265Z,6.70
2023-04-12T04:02:27.951Z,6.60
2023-04-12T04:04:54.858Z,6.80
2023-04-12T04:07:21.923Z,6.80
2023-04-12T04:12:16.714Z,6.90
2023-04-12T04:14:43.358Z,6.90
2023-04-12T04:17:09.877Z,6.90
2023-04-12T04:19:36.463Z,6.90
2023-04-12T04:22:03.111Z,6.90
2023-04-12T04:24:29.901Z,7.00
2023-04-12T04:26:56.434Z,6.90
2023-04-12T04:29:23.646Z,6.90
2023-04-12T04:31:50.740Z,7.00
2023-04-12T04:34:19.303Z,7.00
2023-04-12T04:36:46.877Z,7.20
2023-04-12T04:39:13.523Z,7.20
2023-04-12T04:41:41.268Z,7.10
2023-04-12T04:44:11.364Z,7.10
2023-04-12T04:46:38.266Z,7.10
2023-04-12T04:49:05.710Z,7.10
2023-04-12T04:51:32.365Z,7.10
2023-04-12T04:54:00.864Z,7.10
2023-04-12T04:56:27.425Z,7.20
2023-04-12T04:58:56.347Z,7.20
2023-04-12T05:01:28.654Z,7.20
2023-04-12T05:03:55.819Z,7.20
2023-04-12T05:06:23.023Z,7.20
2023-04-12T05:08:49.665Z,7.30
2023-04-12T05:11:16.237Z,7.30
2023-04-12T05:13:43.096Z,7.40
2023-04-12T05:23:37.220Z,7.70
2023-04-12T05:26:04.162Z,7.60
2023-04-12T05:28:30.815Z,7.70
2023-04-12T05:30:57.392Z,7.60
2023-04-12T05:33:24.380Z,7.70
2023-04-12T05:35:51.040Z,7.80
2023-04-12T05:38:18.692Z,7.80
2023-04-12T05:40:45.300Z,7.80
2023-04-12T05:43:12.971Z,7.90
2023-04-12T05:45:40.405Z,10.00
2023-04-12T05:48:07.093Z,7.90
2023-04-12T05:50:33.718Z,8.00
2023-04-12T05:53:01.730Z,8.00
2023-04-12T05:55:28.694Z,8.00
2023-04-12T05:57:55.302Z,8.00
2023-04-12T06:00:21.865Z,8.10
2023-04-12T06:02:50.358Z,8.50
2023-04-12T06:05:17.775Z,8.20
2023-04-12T06:07:48.162Z,8.20
2023-04-12T06:10:19.062Z,8.30
2023-04-12T06:12:45.733Z,8.30
2023-04-12T06:15:12.284Z,8.40
2023-04-12T06:17:38.990Z,8.40
2023-04-12T06:20:08.390Z,8.40
2023-04-12T06:22:35.472Z,8.40
2023-04-12T06:25:02.176Z,8.40
2023-04-12T06:27:29.025Z,8.40
2023-04-12T06:29:55.775Z,8.40
2023-04-12T06:32:23.204Z,8.40
2023-04-12T06:34:49.856Z,8.40
2023-04-12T06:37:16.412Z,8.40
2023-04-12T06:39:43.007Z,8.40
2023-04-12T06:42:09.539Z,8.40
2023-04-12T06:44:36.076Z,8.40
2023-04-12T06:47:02.703Z,8.30
2023-04-12T06:49:29.481Z,8.40
2023-04-12T06:51:56.055Z,8.40
2023-04-12T06:54:24.009Z,8.40
2023-04-12T06:56:50.522Z,8.50
2023-04-12T06:59:17.607Z,8.50
2023-04-12T07:01:44.420Z,8.50
2023-04-12T07:04:11.481Z,8.50
2023-04-12T07:06:38.012Z,8.60
2023-04-12T07:09:04.772Z,8.60
2023-04-12T07:11:31.863Z,8.60
2023-04-12T07:14:01.191Z,8.50
2023-04-12T07:16:29.623Z,8.50
2023-04-12T07:18:56.565Z,8.50
2023-04-12T07:21:23.350Z,8.50
2023-04-12T07:23:51.289Z,8.60
2023-04-12T07:26:19.038Z,8.60
2023-04-12T07:28:45.917Z,8.60
2023-04-12T07:31:12.495Z,8.70
2023-04-12T07:33:41.424Z,8.70
2023-04-12T07:36:09.617Z,8.70
2023-04-12T07:38:36.157Z,12.20
2023-04-12T07:41:02.738Z,8.90
2023-04-12T07:43:29.257Z,8.90
2023-04-12T07:45:56.312Z,8.90
2023-04-12T07:48:23.063Z,8.90
2023-04-12T07:50:49.592Z,9.00
2023-04-12T07:53:23.295Z,9.50
2023-04-12T07:55:50.579Z,9.10
2023-04-12T07:58:17.671Z,9.10
2023-04-12T08:00:44.734Z,9.20
2023-04-12T08:03:11.859Z,9.40
2023-04-12T08:05:38.522Z,9.40
2023-04-12T08:08:06.092Z,9.50
2023-04-12T08:10:32.700Z,9.60
2023-04-12T08:15:26.370Z,9.50
2023-04-12T08:17:53.344Z,9.80
2023-04-12T08:20:19.875Z,10.00
2023-04-12T08:25:14.034Z,10.70
2023-04-12T08:27:43.758Z,10.70
2023-04-12T08:30:11.594Z,10.80
2023-04-12T08:32:38.208Z,10.90
2023-04-12T08:35:05.389Z,10.90
2023-04-12T08:37:32.052Z,11.20
2023-04-12T08:40:04.108Z,11.10
2023-04-12T08:42:31.821Z,10.90
2023-04-12T08:44:58.487Z,10.80
2023-04-12T08:47:25.062Z,10.80
2023-04-12T08:52:18.658Z,10.70
2023-04-12T08:54:45.250Z,11.50
2023-04-12T08:57:12.404Z,10.70
2023-04-12T08:59:42.215Z,10.60
2023-04-12T09:02:09.462Z,13.30
2023-04-12T09:04:47.017Z,10.80
2023-04-12T09:07:13.649Z,10.90
2023-04-12T09:09:50.006Z,10.90
2023-04-12T09:12:17.069Z,10.50
2023-04-12T09:14:44.801Z,10.40
2023-04-12T09:17:24.379Z,10.30
2023-04-12T09:19:51.401Z,10.20
2023-04-12T09:22:18.374Z,10.10
2023-04-12T09:24:53.113Z,10.00
2023-04-12T09:27:22.662Z,10.10
2023-04-12T09:29:51.772Z,10.10
2023-04-12T09:32:27.723Z,9.90
2023-04-12T09:34:57.796Z,9.90
2023-04-12T09:37:24.550Z,9.90
2023-04-12T09:39:58.917Z,10.50
2023-04-12T09:42:33.259Z,9.90
2023-04-12T09:45:02.673Z,9.80
2023-04-12T09:47:39.719Z,10.30
2023-04-12T09:50:07.899Z,9.80
2023-04-12T09:52:38.373Z,9.70
2023-04-12T09:55:09.359Z,9.70
2023-04-12T09:57:42.008Z,9.70
2023-04-12T10:00:14.208Z,9.70
2023-04-12T10:02:42.708Z,9.80
2023-04-12T10:05:13.232Z,9.70
2023-04-12T10:07:42.120Z,9.70
2023-04-12T10:10:12.598Z,9.70
2023-04-12T10:12:40.822Z,9.80
2023-04-12T10:15:12.842Z,9.90
2023-04-12T10:17:41.944Z,10.00
2023-04-12T10:20:09.982Z,10.00
2023-04-12T10:22:38.736Z,10.40
2023-04-12T10:25:05.811Z,10.60
2023-04-12T10:27:32.410Z,10.70
2023-04-12T10:30:18.695Z,10.70
2023-04-12T10:32:45.691Z,10.70
2023-04-12T11:18:35.147Z,12.30
2023-04-12T11:21:03.287Z,12.00
2023-04-12T11:23:31.436Z,11.70
2023-04-12T11:25:59.113Z,11.20
2023-04-12T11:28:31.172Z,11.40
2023-04-12T11:31:06.538Z,11.30
2023-04-12T11:33:37.923Z,12.20
2023-04-12T11:36:09.186Z,11.40
2023-04-12T11:38:36.865Z,11.50
2023-04-12T11:41:04.777Z,11.40
2023-04-12T11:43:31.617Z,11.40
2023-04-12T11:45:59.119Z,11.30
2023-04-12T11:48:26.451Z,11.50
2023-04-12T11:51:03.988Z,11.50
2023-04-12T11:53:37.265Z,11.50
2023-04-12T11:56:03.936Z,11.50
2023-04-12T11:58:30.768Z,11.50
2023-04-12T12:00:58.470Z,11.50
2023-04-12T12:03:25.532Z,11.60
2023-04-12T12:05:52.472Z,11.70
2023-04-12T12:08:19.813Z,11.80
2023-04-12T12:13:18.849Z,11.80
2023-04-12T12:15:46.365Z,11.80
2023-04-12T12:18:13.042Z,11.50
2023-04-12T12:20:49.745Z,12.00
2023-04-12T12:23:29.749Z,12.00
2023-04-12T12:26:10.516Z,11.90
2023-04-12T12:28:44.755Z,11.90
2023-04-12T12:31:12.441Z,12.00
2023-04-12T12:33:46.776Z,12.00
2023-04-12T12:36:17.029Z,12.40
2023-04-12T12:38:43.819Z,13.10
2023-04-12T12:41:17.189Z,13.60
2023-04-12T12:43:47.136Z,13.30
2023-04-12T12:46:14.148Z,11.90
2023-04-12T12:48:42.003Z,12.60
2023-04-12T12:51:09.754Z,12.40
2023-04-12T12:53:36.696Z,12.40
2023-04-12T12:56:03.315Z,12.30
2023-04-12T12:58:30.222Z,12.30
2023-04-12T13:00:56.991Z,12.50
2023-04-12T13:03:24.161Z,12.60
2023-04-12T13:05:51.365Z,12.70
2023-04-12T13:08:18.477Z,12.60
2023-04-12T13:10:45.298Z,12.50
2023-04-12T13:13:12.184Z,12.40
2023-04-12T13:15:38.784Z,12.60
2023-04-12T13:18:05.980Z,12.60
2023-04-12T13:20:32.647Z,13.40
2023-04-12T13:22:59.379Z,13.00
2023-04-12T13:25:26.413Z,13.10
2023-04-12T13:27:53.003Z,13.20
2023-04-12T13:30:19.934Z,13.10
2023-04-12T13:32:46.884Z,13.00
2023-04-12T13:35:13.651Z,12.90
2023-04-12T13:37:40.303Z,12.90
2023-04-12T13:40:07.930Z,12.90
2023-04-12T13:42:34.487Z,13.10
2023-04-12T13:45:01.492Z,13.40
2023-04-12T13:47:29.014Z,14.40
2023-04-12T13:49:55.587Z,14.40
2023-04-12T13:52:22.345Z,14.50
2023-04-12T13:54:49.005Z,14.40
2023-04-12T13:57:15.563Z,14.30
2023-04-12T13:59:42.345Z,14.00
2023-04-12T14:02:09.235Z,13.80
2023-04-12T14:04:35.947Z,13.80
2023-04-12T14:07:02.749Z,13.90
2023-04-12T14:09:30.239Z,13.90
2023-04-12T14:11:58.127Z,13.90
2023-04-12T14:14:25.562Z,14.20
2023-04-12T14:16:53.581Z,14.30
2023-04-12T14:19:20.486Z,14.40
2023-04-12T14:21:47.527Z,14.50
2023-04-12T14:24:14.381Z,14.30
2023-04-12T14:26:41.615Z,14.20
2023-04-12T14:29:08.293Z,14.20
2023-04-12T14:31:36.256Z,14.10
2023-04-12T14:34:03.416Z,14.20
2023-04-12T14:36:31.018Z,14.30
2023-04-12T14:38:57.979Z,14.40
2023-04-12T14:41:24.913Z,14.50
2023-04-12T14:43:51.484Z,14.70
2023-04-12T14:46:18.097Z,14.50
2023-04-12T14:48:44.904Z,14.60
2023-04-12T14:51:11.492Z,14.80
2023-04-12T14:53:38.073Z,14.90
2023-04-12T14:56:05.022Z,15.20
2023-04-12T14:58:33.302Z,15.80
2023-04-12T15:01:00.904Z,16.40
2023-04-12T15:03:29.954Z,16.70
2023-04-12T15:05:59.038Z,17.00
2023-04-12T15:08:25.598Z,17.00
2023-04-12T15:10:52.169Z,17.00
2023-04-12T15:13:19.653Z,16.60
2023-04-12T15:15:47.687Z,16.50
2023-04-12T15:18:15.427Z,16.50
2023-04-12T15:20:42.456Z,16.40
2023-04-12T15:23:09.043Z,16.60
2023-04-12T15:25:35.624Z,16.30
2023-04-12T15:28:02.933Z,16.30
2023-04-12T15:30:30.676Z,16.40
2023-04-12T15:32:58.349Z,16.30
2023-04-12T15:35:26.925Z,16.50
2023-04-12T15:37:55.083Z,16.70
2023-04-12T15:40:22.717Z,16.60
2023-04-12T15:42:49.604Z,17.20
2023-04-12T15:45:16.317Z,17.20
2023-04-12T15:47:42.961Z,17.00
2023-04-12T15:50:10.173Z,16.60
2023-04-12T15:52:36.773Z,16.60
2023-04-12T15:55:05.133Z,16.50
2023-04-12T15:57:32.366Z,16.40
2023-04-12T15:59:59.730Z,13.90
2023-04-12T16:02:26.737Z,16.10
2023-04-12T16:04:55.882Z,16.00
2023-04-12T16:07:22.744Z,16.00
2023-04-12T16:09:50.109Z,16.10
2023-04-12T16:12:16.642Z,16.00
2023-04-12T16:14:44.137Z,16.00
2023-04-12T16:17:10.753Z,15.90
2023-04-12T16:19:37.561Z,15.60
2023-04-12T16:22:04.193Z,15.50
2023-04-12T16:24:30.739Z,15.40
2023-04-12T16:26:57.487Z,15.40
2023-04-12T16:29:24.476Z,15.30
2023-04-12T16:31:52.207Z,15.20
2023-04-12T16:34:21.850Z,15.10
2023-04-12T16:36:49.148Z,15.00
2023-04-12T16:39:16.526Z,15.00
2023-04-12T16:41:43.768Z,14.90
2023-04-12T16:44:10.724Z,14.80
2023-04-12T16:46:37.697Z,14.70
2023-04-12T16:49:04.750Z,14.60
2023-04-12T16:51:36.920Z,14.60
2023-04-12T16:54:04.191Z,14.40
2023-04-12T16:56:31.018Z,14.30
2023-04-12T16:58:59.196Z,14.20
2023-04-12T17:01:25.769Z,14.00
2023-04-12T17:03:52.540Z,13.90
2023-04-12T17:06:19.585Z,13.90
2023-04-12T17:08:46.648Z,13.70
2023-04-12T17:11:13.549Z,13.60
2023-04-12T17:13:40.118Z,13.20
2023-04-12T17:16:06.971Z,12.90
2023-04-12T17:18:34.630Z,12.90
2023-04-12T17:21:01.310Z,12.60
2023-04-12T17:23:28.355Z,12.50
2023-04-12T17:25:56.544Z,12.50
2023-04-12T17:28:23.085Z,12.50
2023-04-12T17:30:50.050Z,12.30
2023-04-12T17:33:18.223Z,12.50
2023-04-12T17:35:45.248Z,12.50
2023-04-12T17:38:12.011Z,12.50
2023-04-12T17:40:38.596Z,12.50
2023-04-12T17:43:05.288Z,12.50
2023-04-12T17:45:33.529Z,12.40
2023-04-12T17:48:00.178Z,12.40
2023-04-12T17:50:26.815Z,12.40
2023-04-12T17:52:55.308Z,12.40
2023-04-12T17:55:25.924Z,12.30
2023-04-12T18:00:20.228Z,12.20
2023-04-12T19:19:00.455Z,11.10
2023-04-12T19:21:29.990Z,11.10
2023-04-12T19:28:55.262Z,10.90
2023-04-12T19:31:21.976Z,10.90
2023-04-12T19:36:15.650Z,10.80
2023-04-12T19:38:44.091Z,10.80
2023-04-12T19:41:10.876Z,10.70
2023-04-12T19:43:37.670Z,10.80
2023-04-12T19:46:07.700Z,10.70
2023-04-12T19:48:34.953Z,10.70
2023-04-12T19:51:01.634Z,10.70
2023-04-12T19:53:28.335Z,10.60
2023-04-12T19:55:56.989Z,10.60
2023-04-12T19:58:24.209Z,10.60
2023-04-12T20:00:54.960Z,10.50
2023-04-12T20:03:22.637Z,10.50
2023-04-12T20:05:50.491Z,10.60
2023-04-12T20:08:17.110Z,10.50
2023-04-12T20:10:43.774Z,10.50
2023-04-12T20:13:15.074Z,10.50
2023-04-12T20:18:11.247Z,10.60
2023-04-12T20:20:38.141Z,10.50
2023-04-12T20:23:04.817Z,10.50
2023-04-12T20:25:37.587Z,10.40
2023-04-12T20:28:04.488Z,10.30
2023-04-12T20:30:31.102Z,10.40
2023-04-12T20:37:52.882Z,10.30
2023-04-12T20:40:20.489Z,10.20
2023-04-12T20:42:47.134Z,10.20
2023-04-12T20:45:14.374Z,10.20
2023-04-12T20:47:41.548Z,7.30
2023-04-12T20:50:08.373Z,10.50
2023-04-12T20:52:38.151Z,10.00
2023-04-12T20:55:05.489Z,10.00
2023-04-12T20:59:59.532Z,9.90
2023-04-12T21:02:26.270Z,9.80
2023-04-12T21:04:53.048Z,10.70
2023-04-12T21:07:20.209Z,9.80
2023-04-12T21:09:47.048Z,9.80
2023-04-12T21:12:13.645Z,9.80
2023-04-12T21:14:40.342Z,9.80
2023-04-12T21:17:07.863Z,9.80
2023-04-12T21:19:38.935Z,9.80
2023-04-12T21:22:06.945Z,9.80
2023-04-12T21:24:38.140Z,9.80
2023-04-12T21:27:06.668Z,9.80
2023-04-12T21:29:34.454Z,9.80
2023-04-12T21:32:02.094Z,9.80
2023-04-12T21:34:29.670Z,9.80
2023-04-12T21:36:57.315Z,9.80
2023-04-12T21:39:23.946Z,9.70
2023-04-12T21:41:50.472Z,9.70
2023-04-12T21:44:17.967Z,9.70
2023-04-12T21:46:44.546Z,9.60
2023-04-12T21:49:11.222Z,9.60
2023-04-12T21:51:37.820Z,9.70
2023-04-12T21:54:04.366Z,9.60
2023-04-12T21:56:31.348Z,9.60
2023-04-12T21:58:59.928Z,9.60
2023-04-12T22:01:27.291Z,9.60
2023-04-12T22:03:54.109Z,12.20
2023-04-12T22:06:21.402Z,9.60
2023-04-12T22:08:48.259Z,9.60
2023-04-12T22:11:14.906Z,9.60
2023-04-12T22:13:41.671Z,11.20
2023-04-12T22:16:16.853Z,9.60
2023-04-12T22:18:46.197Z,9.60
2023-04-12T22:21:12.896Z,9.60
2023-04-12T22:23:40.379Z,9.50
2023-04-12T22:26:10.726Z,9.50
2023-04-12T22:28:38.134Z,9.50
2023-04-12T22:31:05.568Z,9.50
2023-04-12T22:33:32.330Z,9.50
2023-04-12T22:35:58.893Z,11.70
2023-04-12T22:38:25.875Z,9.60
2023-04-12T22:40:54.882Z,9.50
2023-04-12T22:43:22.316Z,9.50
2023-04-12T22:45:48.889Z,9.50
2023-04-12T22:48:15.508Z,9.50
2023-04-12T22:50:42.146Z,9.30
2023-04-12T22:53:08.892Z,10.00
2023-04-12T22:55:36.661Z,9.50
2023-04-12T23:00:35.069Z,9.60
2023-04-12T23:03:06.556Z,9.50
2023-04-12T23:05:33.725Z,9.50
2023-04-12T23:08:00.613Z,9.50
2023-04-12T23:10:28.076Z,9.50
2023-04-12T23:12:55.304Z,9.50
2023-04-12T23:15:21.941Z,9.50
2023-04-12T23:17:49.862Z,9.50
2023-04-12T23:20:17.020Z,9.40
2023-04-12T23:22:57.520Z,9.40
2023-04-12T23:25:37.620Z,9.40
2023-04-12T23:28:14.967Z,9.40
2023-04-12T23:30:42.722Z,9.40
2023-04-12T23:33:11.802Z,9.30
2023-04-12T23:35:39.173Z,9.30
2023-04-12T23:38:05.955Z,9.30
2023-04-12T23:40:33.371Z,9.30
2023-04-12T23:43:00.129Z,9.40
2023-04-12T23:45:27.278Z,9.20
2023-04-12T23:47:54.085Z,9.20
2023-04-12T23:50:20.903Z,9.30
2023-04-12T23:52:47.545Z,9.20
2023-04-12T23:55:14.376Z,9.20
2023-04-12T23:57:42.152Z,9.20
